Time;durP1;ratioP1;P1;durP2;ratioP2;P2;SDS_P1;SDS_P2;PMS_P1;PMS_P2;Temp;Humidity;BMP_temperature;BMP_pressure;BME280_temperature;BME280_humidity;BME280_pressure;Samples;Min_cycle;Max_cycle;Signal;HPM_P1;HPM_P2
2023/07/14 00:00:13;;;;;;;;;;;26.30;60.00;;;;;;5093705;28;19924;-58
2023/07/14 00:02:41;;;;;;;;;;;26.20;59.90;;;;;;5093019;28;19977;-58
2023/07/14 00:05:12;;;;;;;;;;;26.20;59.90;;;;;;5092779;28;19975;-58
2023/07/14 00:07:39;;;;;;;;;;;26.20;59.90;;;;;;5093622;28;19928;-58
2023/07/14 00:10:14;;;;;;;;;;;26.20;59.90;;;;;;5092323;28;19969;-58
2023/07/14 00:12:41;;;;;;;;;;;26.20;60.50;;;;;;5093336;28;20015;-57
2023/07/14 00:15:08;;;;;;;;;;;26.20;59.90;;;;;;5091767;28;19969;-58
2023/07/14 00:17:35;;;;;;;;;;;26.20;59.90;;;;;;5092742;28;19978;-59
2023/07/14 00:20:11;;;;;;;;;;;26.20;60.00;;;;;;5092318;28;19924;-57
2023/07/14 00:22:38;;;;;;;;;;;26.20;60.00;;;;;;5093025;28;19984;-58
2023/07/14 00:25:05;;;;;;;;;;;26.20;60.20;;;;;;5091814;28;19924;-58
2023/07/14 00:27:32;;;;;;;;;;;26.20;60.00;;;;;;5093303;28;19977;-58
2023/07/14 00:29:59;;;;;;;;;;;26.20;60.00;;;;;;5092862;28;20292;-59
2023/07/14 00:32:26;;;;;;;;;;;26.20;60.00;;;;;;5093038;28;19959;-56
2023/07/14 00:34:53;;;;;;;;;;;26.20;60.00;;;;;;5093115;28;19924;-56
2023/07/14 00:37:20;;;;;;;;;;;26.20;60.00;;;;;;5092999;28;19924;-56
2023/07/14 00:39:47;;;;;;;;;;;26.20;60.00;;;;;;5092888;28;19931;-57
2023/07/14 00:42:16;;;;;;;;;;;26.10;59.90;;;;;;5093372;28;19989;-56
2023/07/14 00:44:44;;;;;;;;;;;26.20;60.00;;;;;;5092499;28;19935;-56
2023/07/14 00:47:27;;;;;;;;;;;26.20;60.00;;;;;;5092535;28;20380;-55
2023/07/14 00:49:55;;;;;;;;;;;26.10;59.90;;;;;;5092460;28;20295;-56
2023/07/14 00:52:27;;;;;;;;;;;26.20;60.00;;;;;;5093290;28;19932;-56
2023/07/14 00:54:54;;;;;;;;;;;26.20;60.00;;;;;;5092614;28;20027;-56
2023/07/14 00:57:24;;;;;;;;;;;26.20;60.50;;;;;;5093169;28;19924;-56
2023/07/14 00:59:54;;;;;;;;;;;26.20;60.00;;;;;;5091760;28;20303;-56
2023/07/14 01:02:22;;;;;;;;;;;26.10;59.90;;;;;;5092664;28;19931;-56
2023/07/14 01:04:52;;;;;;;;;;;26.20;59.90;;;;;;5092360;28;19975;-55
2023/07/14 01:07:23;;;;;;;;;;;26.20;59.90;;;;;;5092318;28;19924;-56
2023/07/14 01:09:50;;;;;;;;;;;26.20;59.90;;;;;;5092729;28;19946;-56
2023/07/14 01:12:19;;;;;;;;;;;26.20;59.80;;;;;;5092826;28;19924;-54
2023/07/14 01:14:48;;;;;;;;;;;26.20;59.80;;;;;;5091309;28;19970;-56
2023/07/14 01:17:16;;;;;;;;;;;26.20;59.80;;;;;;5092997;28;19997;-56
2023/07/14 01:19:47;;;;;;;;;;;26.20;59.80;;;;;;5092246;28;19924;-56
2023/07/14 01:22:34;;;;;;;;;;;26.20;59.80;;;;;;5092475;28;19928;-56
2023/07/14 01:25:21;;;;;;;;;;;26.20;59.80;;;;;;5092051;28;19924;-56
2023/07/14 01:27:48;;;;;;;;;;;26.20;59.80;;;;;;5092085;28;19977;-56
2023/07/14 01:30:16;;;;;;;;;;;26.20;59.80;;;;;;5094694;28;19970;-55
2023/07/14 01:32:45;;;;;;;;;;;26.20;59.80;;;;;;5096564;28;20330;-55
2023/07/14 01:35:13;;;;;;;;;;;26.20;59.80;;;;;;5095375;28;20343;-55
2023/07/14 01:37:40;;;;;;;;;;;26.20;59.80;;;;;;5097082;28;19977;-56
2023/07/14 01:40:11;;;;;;;;;;;26.20;59.80;;;;;;5095763;28;19977;-56
2023/07/14 01:42:43;;;;;;;;;;;26.10;59.80;;;;;;5096126;28;19935;-55
2023/07/14 01:45:12;;;;;;;;;;;26.10;59.70;;;;;;5095933;28;20475;-56
2023/07/14 01:47:41;;;;;;;;;;;26.20;59.80;;;;;;5096254;28;20273;-56
2023/07/14 01:50:15;;;;;;;;;;;26.20;59.80;;;;;;5095513;28;20018;-56
2023/07/14 01:52:42;;;;;;;;;;;26.10;59.80;;;;;;5095818;28;19924;-56
2023/07/14 01:55:12;;;;;;;;;;;26.20;59.80;;;;;;5095398;28;19967;-56
2023/07/14 01:57:40;;;;;;;;;;;26.10;59.80;;;;;;5094180;28;19931;-56
2023/07/14 02:00:11;;;;;;;;;;;26.10;59.80;;;;;;5095205;28;19963;-56
2023/07/14 02:02:40;;;;;;;;;;;26.10;59.80;;;;;;5095288;28;20375;-56
2023/07/14 02:05:19;;;;;;;;;;;26.10;59.80;;;;;;5094940;28;20336;-57
2023/07/14 02:07:47;;;;;;;;;;;26.10;59.80;;;;;;5096033;28;19960;-54
2023/07/14 02:10:19;;;;;;;;;;;26.10;59.80;;;;;;5095324;28;20380;-56
2023/07/14 02:12:47;;;;;;;;;;;26.10;59.80;;;;;;5095328;28;19950;-55
2023/07/14 02:15:17;;;;;;;;;;;26.10;59.80;;;;;;5095474;28;19924;-56
2023/07/14 02:17:45;;;;;;;;;;;26.10;59.80;;;;;;5091043;28;19932;-56
2023/07/14 02:20:18;;;;;;;;;;;26.10;59.80;;;;;;5095156;28;20469;-56
2023/07/14 02:22:46;;;;;;;;;;;26.10;59.80;;;;;;5095389;28;19967;-56
2023/07/14 02:25:15;;;;;;;;;;;26.10;59.80;;;;;;5096138;28;19924;-56
2023/07/14 02:27:42;;;;;;;;;;;26.10;59.80;;;;;;5096013;28;19924;-56
2023/07/14 02:30:11;;;;;;;;;;;26.10;59.80;;;;;;5095603;28;19924;-56
2023/07/14 02:32:41;;;;;;;;;;;26.10;59.80;;;;;;5096153;28;20321;-56
2023/07/14 02:35:15;;;;;;;;;;;26.10;59.80;;;;;;5095958;28;19924;-55
2023/07/14 02:38:03;;;;;;;;;;;26.10;59.80;;;;;;5096031;28;19924;-56
2023/07/14 02:40:34;;;;;;;;;;;26.10;59.70;;;;;;5093831;28;19966;-55
2023/07/14 02:43:07;;;;;;;;;;;26.10;59.70;;;;;;5095489;28;19931;-56
2023/07/14 02:45:35;;;;;;;;;;;26.10;59.70;;;;;;5095026;28;20388;-56
2023/07/14 02:48:04;;;;;;;;;;;26.10;59.70;;;;;;5095852;28;19932;-57
2023/07/14 02:50:31;;;;;;;;;;;26.10;59.70;;;;;;5095220;28;20288;-56
2023/07/14 02:52:58;;;;;;;;;;;26.10;59.60;;;;;;5095428;28;19969;-55
2023/07/14 02:55:25;;;;;;;;;;;26.10;59.60;;;;;;5094866;28;20376;-55
2023/07/14 02:57:51;;;;;;;;;;;26.10;59.60;;;;;;5095259;28;20027;-56
2023/07/14 03:00:19;;;;;;;;;;;26.10;59.60;;;;;;5095002;28;19931;-57
2023/07/14 03:02:46;;;;;;;;;;;26.10;59.60;;;;;;5094415;28;19924;-56
2023/07/14 03:05:13;;;;;;;;;;;26.10;59.60;;;;;;5094970;28;19928;-57
2023/07/14 03:07:40;;;;;;;;;;;26.10;59.60;;;;;;5094906;28;19924;-57
2023/07/14 03:10:08;;;;;;;;;;;26.10;59.80;;;;;;5095049;28;19931;-58
2023/07/14 03:12:35;;;;;;;;;;;26.10;59.60;;;;;;5095111;28;19925;-58
2023/07/14 03:15:03;;;;;;;;;;;26.10;59.60;;;;;;5094875;28;19964;-60
2023/07/14 03:17:30;;;;;;;;;;;26.10;59.60;;;;;;5095341;28;20001;-58
2023/07/14 03:19:57;;;;;;;;;;;26.10;59.80;;;;;;5095082;28;20007;-58
2023/07/14 03:22:26;;;;;;;;;;;26.10;59.80;;;;;;5095152;28;19924;-57
2023/07/14 03:24:53;;;;;;;;;;;26.10;59.60;;;;;;5093830;28;19998;-57
2023/07/14 03:27:20;;;;;;;;;;;26.10;59.60;;;;;;5095063;28;20288;-57
2023/07/14 03:29:48;;;;;;;;;;;26.10;59.60;;;;;;5094641;28;20433;-57
2023/07/14 03:32:15;;;;;;;;;;;26.10;59.60;;;;;;5094547;28;20435;-57
2023/07/14 03:34:42;;;;;;;;;;;26.10;59.60;;;;;;5094069;28;19960;-57
2023/07/14 03:37:09;;;;;;;;;;;26.10;59.60;;;;;;5094486;28;19924;-58
2023/07/14 03:39:36;;;;;;;;;;;26.10;59.50;;;;;;5094353;28;19924;-57
2023/07/14 03:42:03;;;;;;;;;;;26.10;59.50;;;;;;5094819;28;19924;-57
2023/07/14 03:44:32;;;;;;;;;;;26.10;59.50;;;;;;5093760;28;19931;-57
2023/07/14 03:46:59;;;;;;;;;;;26.10;59.40;;;;;;5094180;28;19924;-57
2023/07/14 03:49:26;;;;;;;;;;;26.10;59.40;;;;;;5094720;28;19970;-58
2023/07/14 03:51:53;;;;;;;;;;;26.20;59.40;;;;;;5093011;28;20429;-57
2023/07/14 03:54:20;;;;;;;;;;;26.20;59.40;;;;;;5093663;28;19977;-57
2023/07/14 03:56:47;;;;;;;;;;;26.10;59.30;;;;;;5094286;28;19969;-57
2023/07/14 03:59:14;;;;;;;;;;;26.20;59.30;;;;;;5094717;28;19928;-57
2023/07/14 04:01:41;;;;;;;;;;;26.20;59.30;;;;;;5094480;28;20322;-57
2023/07/14 04:04:08;;;;;;;;;;;26.20;59.20;;;;;;5094118;28;19932;-57
2023/07/14 04:06:35;;;;;;;;;;;26.20;59.20;;;;;;5092891;28;19935;-56
2023/07/14 04:09:02;;;;;;;;;;;26.20;59.10;;;;;;5093215;28;20364;-57
2023/07/14 04:11:29;;;;;;;;;;;26.30;59.10;;;;;;5093518;28;19970;-58
2023/07/14 04:13:56;;;;;;;;;;;26.30;59.00;;;;;;5093158;28;19978;-57
2023/07/14 04:16:24;;;;;;;;;;;26.30;59.00;;;;;;5092472;28;19977;-58
2023/07/14 04:18:51;;;;;;;;;;;26.30;58.90;;;;;;5092593;28;19928;-57
2023/07/14 04:21:24;;;;;;;;;;;26.40;58.90;;;;;;5091755;28;19924;-58
2023/07/14 04:23:51;;;;;;;;;;;26.40;58.80;;;;;;5092806;28;19979;-57
2023/07/14 04:26:19;;;;;;;;;;;26.40;58.70;;;;;;5093030;28;19950;-56
2023/07/14 04:28:46;;;;;;;;;;;26.40;59.20;;;;;;5093435;28;19931;-58
2023/07/14 04:31:13;;;;;;;;;;;26.50;58.70;;;;;;5092485;28;20072;-58
2023/07/14 04:33:44;;;;;;;;;;;26.40;58.70;;;;;;5093092;28;19932;-57
2023/07/14 04:36:12;;;;;;;;;;;26.40;58.50;;;;;;5093239;28;19924;-57
2023/07/14 04:38:41;;;;;;;;;;;26.40;58.60;;;;;;5093253;28;19932;-59
2023/07/14 04:41:11;;;;;;;;;;;26.40;58.70;;;;;;5092186;28;19963;-57
2023/07/14 04:43:38;;;;;;;;;;;26.20;58.70;;;;;;5092332;28;19925;-57
2023/07/14 04:46:05;;;;;;;;;;;26.10;58.60;;;;;;5093018;28;19928;-57
2023/07/14 04:48:32;;;;;;;;;;;25.90;57.70;;;;;;5092427;28;19924;-58
2023/07/14 04:50:59;;;;;;;;;;;25.70;56.80;;;;;;5092759;28;19947;-56
2023/07/14 04:53:26;;;;;;;;;;;25.40;56.10;;;;;;5094071;28;19969;-57
2023/07/14 04:55:53;;;;;;;;;;;25.20;55.30;;;;;;5092835;28;19967;-57
2023/07/14 04:58:20;;;;;;;;;;;24.90;54.90;;;;;;5092940;28;19924;-59
2023/07/14 05:00:49;;;;;;;;;;;24.60;54.50;;;;;;5092266;28;19985;-58
2023/07/14 05:03:16;;;;;;;;;;;24.30;54.70;;;;;;5091704;28;19930;-57
2023/07/14 05:05:43;;;;;;;;;;;23.90;54.10;;;;;;5093988;28;19928;-57
2023/07/14 05:08:10;;;;;;;;;;;23.60;54.00;;;;;;5093731;28;20358;-56
2023/07/14 05:10:38;;;;;;;;;;;23.40;54.10;;;;;;5083493;28;19973;-57
2023/07/14 05:13:06;;;;;;;;;;;23.10;54.30;;;;;;5087539;28;19930;-58
2023/07/14 05:15:33;;;;;;;;;;;22.80;54.30;;;;;;5074529;28;19964;-57
2023/07/14 05:18:00;;;;;;;;;;;22.60;54.60;;;;;;5075966;28;20020;-59
2023/07/14 05:20:28;;;;;;;;;;;22.30;54.70;;;;;;5079413;28;19943;-59
2023/07/14 05:22:56;;;;;;;;;;;22.20;55.10;;;;;;5081938;28;20371;-58
2023/07/14 05:25:23;;;;;;;;;;;21.90;59.00;;;;;;5082467;28;20384;-59
2023/07/14 05:27:50;;;;;;;;;;;21.80;56.90;;;;;;5080686;28;19924;-57
2023/07/14 05:30:20;;;;;;;;;;;21.70;64.10;;;;;;5079467;28;20001;-56
2023/07/14 05:32:48;;;;;;;;;;;21.40;60.60;;;;;;5075784;28;20423;-59
2023/07/14 05:35:15;;;;;;;;;;;21.00;59.50;;;;;;5076406;28;20001;-58
2023/07/14 05:37:44;;;;;;;;;;;20.70;63.90;;;;;;5080804;28;19939;-59
2023/07/14 05:40:11;;;;;;;;;;;20.50;63.90;;;;;;5075847;28;19933;-58
2023/07/14 05:42:38;;;;;;;;;;;20.60;63.30;;;;;;5070858;28;19939;-58
2023/07/14 05:45:07;;;;;;;;;;;20.70;63.80;;;;;;5076118;28;20310;-58
2023/07/14 05:47:35;;;;;;;;;;;20.90;63.00;;;;;;5071275;28;19924;-56
2023/07/14 05:50:03;;;;;;;;;;;21.00;61.50;;;;;;5078491;28;20015;-58
2023/07/14 05:52:31;;;;;;;;;;;21.10;65.00;;;;;;5075592;28;19924;-58
2023/07/14 05:55:03;;;;;;;;;;;21.20;63.70;;;;;;5074580;28;19932;-55
2023/07/14 05:57:31;;;;;;;;;;;21.20;60.90;;;;;;5072735;28;19936;-55
2023/07/14 05:59:58;;;;;;;;;;;21.10;61.30;;;;;;5068939;28;19928;-56
2023/07/14 06:02:26;;;;;;;;;;;21.10;64.30;;;;;;5072743;28;19936;-55
2023/07/14 06:04:53;;;;;;;;;;;21.00;60.20;;;;;;5077162;28;20540;-58
2023/07/14 06:07:20;;;;;;;;;;;20.90;64.80;;;;;;5075868;28;19924;-59
2023/07/14 06:09:47;;;;;;;;;;;20.90;66.40;;;;;;5077483;28;19932;-58
2023/07/14 06:12:15;;;;;;;;;;;20.80;65.50;;;;;;5074930;28;20382;-55
2023/07/14 06:14:42;;;;;;;;;;;20.70;61.00;;;;;;5078171;28;20031;-57
2023/07/14 06:17:10;;;;;;;;;;;20.70;60.70;;;;;;5068075;28;19932;-57
2023/07/14 06:19:38;;;;;;;;;;;20.70;60.70;;;;;;5073579;28;19944;-56
2023/07/14 06:22:06;;;;;;;;;;;20.70;65.60;;;;;;5062322;28;19928;-57
2023/07/14 06:24:35;;;;;;;;;;;20.60;59.50;;;;;;5081713;28;19932;-54
2023/07/14 06:27:03;;;;;;;;;;;20.60;59.50;;;;;;5075492;28;19933;-57
2023/07/14 06:29:30;;;;;;;;;;;20.50;61.00;;;;;;5079235;28;19932;-57
2023/07/14 06:31:58;;;;;;;;;;;20.50;60.90;;;;;;5069618;28;19932;-56
2023/07/14 06:34:25;;;;;;;;;;;20.40;60.80;;;;;;5056220;28;19925;-56
2023/07/14 06:36:52;;;;;;;;;;;20.50;60.80;;;;;;5075424;28;19924;-57
2023/07/14 06:39:20;;;;;;;;;;;20.50;61.40;;;;;;5079262;28;19971;-58
2023/07/14 06:41:47;;;;;;;;;;;20.50;61.70;;;;;;5077797;28;19974;-56
2023/07/14 06:44:15;;;;;;;;;;;20.50;61.20;;;;;;5073820;28;19936;-58
2023/07/14 06:46:53;;;;;;;;;;;20.50;61.20;;;;;;5075957;28;20019;-58
2023/07/14 06:49:20;;;;;;;;;;;20.40;61.30;;;;;;5078693;28;20790;-57
2023/07/14 06:51:52;;;;;;;;;;;20.50;61.50;;;;;;5077357;28;20003;-57
2023/07/14 06:54:19;;;;;;;;;;;20.40;61.20;;;;;;5078927;28;19932;-58
2023/07/14 06:56:46;;;;;;;;;;;20.50;61.30;;;;;;5076912;28;19970;-58
2023/07/14 06:59:14;;;;;;;;;;;20.50;61.70;;;;;;5073910;28;19924;-58
2023/07/14 07:01:41;;;;;;;;;;;20.60;61.50;;;;;;5075500;28;20462;-58
2023/07/14 07:04:08;;;;;;;;;;;20.50;61.20;;;;;;5075449;28;19924;-57
2023/07/14 07:06:35;;;;;;;;;;;20.60;61.00;;;;;;5073667;28;20027;-58
2023/07/14 07:09:02;;;;;;;;;;;20.60;61.40;;;;;;5076918;28;20162;-58
2023/07/14 07:11:33;;;;;;;;;;;20.60;61.50;;;;;;5072938;28;19924;-58
2023/07/14 07:14:00;;;;;;;;;;;20.60;61.20;;;;;;5077170;28;19930;-59
2023/07/14 07:16:27;;;;;;;;;;;20.60;61.10;;;;;;5069701;28;20296;-57
2023/07/14 07:18:56;;;;;;;;;;;20.60;61.00;;;;;;5078035;28;19929;-57
2023/07/14 07:21:23;;;;;;;;;;;20.60;61.50;;;;;;5075203;28;19924;-57
2023/07/14 07:23:51;;;;;;;;;;;20.60;61.40;;;;;;5072885;28;19928;-58
2023/07/14 07:26:18;;;;;;;;;;;20.60;61.90;;;;;;5079850;28;19970;-57
2023/07/14 07:28:46;;;;;;;;;;;20.60;62.00;;;;;;5074490;28;20420;-58
2023/07/14 07:31:14;;;;;;;;;;;20.60;62.10;;;;;;5074055;28;19928;-58
2023/07/14 07:33:42;;;;;;;;;;;20.70;61.80;;;;;;5076700;28;20386;-56
2023/07/14 07:36:15;;;;;;;;;;;20.70;61.70;;;;;;5072882;28;20222;-56
2023/07/14 07:38:48;;;;;;;;;;;20.70;62.40;;;;;;5074580;28;20043;-58
2023/07/14 07:41:16;;;;;;;;;;;20.70;61.90;;;;;;5077345;28;19935;-57
2023/07/14 07:43:43;;;;;;;;;;;20.80;62.10;;;;;;5071767;28;19924;-57
2023/07/14 07:46:10;;;;;;;;;;;20.80;62.20;;;;;;5078298;28;19989;-58
2023/07/14 07:48:39;;;;;;;;;;;20.90;62.20;;;;;;5075560;28;19968;-56
2023/07/14 07:51:07;;;;;;;;;;;20.90;62.60;;;;;;5078988;28;20016;-57
2023/07/14 07:53:34;;;;;;;;;;;20.90;62.20;;;;;;5077207;28;20380;-56
2023/07/14 07:56:02;;;;;;;;;;;20.90;61.70;;;;;;5074354;28;19931;-57
2023/07/14 07:58:31;;;;;;;;;;;21.00;62.20;;;;;;5074900;28;19931;-55
2023/07/14 08:00:59;;;;;;;;;;;21.00;61.80;;;;;;5075539;28;19967;-57
2023/07/14 08:03:26;;;;;;;;;;;21.00;61.90;;;;;;5077733;28;19935;-52
2023/07/14 08:05:58;;;;;;;;;;;21.00;62.00;;;;;;5070564;28;19935;-57
2023/07/14 08:08:25;;;;;;;;;;;21.00;61.40;;;;;;5068746;28;20346;-56
2023/07/14 08:10:53;;;;;;;;;;;21.00;62.10;;;;;;5066007;28;19933;-57
2023/07/14 08:13:20;;;;;;;;;;;21.00;62.10;;;;;;5073814;28;19932;-55
2023/07/14 08:15:47;;;;;;;;;;;21.10;61.90;;;;;;5073934;28;19932;-56
2023/07/14 08:18:18;;;;;;;;;;;21.10;62.10;;;;;;5078415;28;20299;-56
2023/07/14 08:20:47;;;;;;;;;;;21.10;62.50;;;;;;5076233;28;19936;-56
2023/07/14 08:23:15;;;;;;;;;;;21.20;62.20;;;;;;5078671;28;19928;-57
2023/07/14 08:25:42;;;;;;;;;;;21.20;62.10;;;;;;5082771;28;19975;-56
2023/07/14 08:28:10;;;;;;;;;;;21.20;62.10;;;;;;5073204;28;19924;-57
2023/07/14 08:30:37;;;;;;;;;;;21.20;62.00;;;;;;5072829;28;19924;-57
2023/07/14 08:33:05;;;;;;;;;;;21.20;61.90;;;;;;5082578;28;20399;-57
2023/07/14 08:35:32;;;;;;;;;;;21.20;61.70;;;;;;5080869;28;19932;-55
2023/07/14 08:37:59;;;;;;;;;;;21.20;62.00;;;;;;5072145;28;19932;-55
2023/07/14 08:40:28;;;;;;;;;;;21.20;61.60;;;;;;5075925;28;19928;-55
2023/07/14 08:43:18;;;;;;;;;;;21.30;61.70;;;;;;5073951;28;19932;-54
2023/07/14 08:46:05;;;;;;;;;;;21.30;61.80;;;;;;5070957;28;19928;-56
2023/07/14 08:48:42;;;;;;;;;;;21.30;61.60;;;;;;5076463;28;20937;-55
2023/07/14 08:51:20;;;;;;;;;;;21.30;62.10;;;;;;5074125;28;20348;-55
2023/07/14 08:53:50;;;;;;;;;;;21.20;62.00;;;;;;5072767;28;19925;-57
2023/07/14 08:56:19;;;;;;;;;;;21.30;62.10;;;;;;5070267;28;19971;-56
2023/07/14 08:58:48;;;;;;;;;;;21.30;61.90;;;;;;5074681;28;19929;-54
2023/07/14 09:01:25;;;;;;;;;;;21.30;62.10;;;;;;5076495;28;19925;-57
2023/07/14 09:03:55;;;;;;;;;;;21.30;61.50;;;;;;5072626;28;19982;-57
2023/07/14 09:06:30;;;;;;;;;;;21.40;61.50;;;;;;5079802;28;20356;-56
2023/07/14 09:08:58;;;;;;;;;;;21.40;61.80;;;;;;5076909;28;19928;-55
2023/07/14 09:11:44;;;;;;;;;;;21.40;61.90;;;;;;5073631;28;19925;-55
2023/07/14 09:14:32;;;;;;;;;;;21.40;61.70;;;;;;5071676;28;20305;-55
2023/07/14 09:17:04;;;;;;;;;;;21.50;61.50;;;;;;5072035;28;19932;-58
2023/07/14 09:19:50;;;;;;;;;;;21.50;61.30;;;;;;5077992;28;19924;-53
2023/07/14 09:22:23;;;;;;;;;;;21.60;61.30;;;;;;5076301;28;19929;-54
2023/07/14 09:25:03;;;;;;;;;;;21.50;61.20;;;;;;5071318;28;20091;-56
2023/07/14 09:27:31;;;;;;;;;;;21.50;61.50;;;;;;5076203;28;19987;-57
2023/07/14 09:29:59;;;;;;;;;;;21.60;61.40;;;;;;5079217;28;19931;-55
2023/07/14 09:32:39;;;;;;;;;;;21.60;61.20;;;;;;5075558;28;20022;-55
2023/07/14 09:35:18;;;;;;;;;;;21.60;61.30;;;;;;5082262;28;19925;-55
2023/07/14 09:37:49;;;;;;;;;;;21.60;60.80;;;;;;5075428;28;19928;-53
2023/07/14 09:40:24;;;;;;;;;;;21.60;61.30;;;;;;5075300;28;19971;-57
2023/07/14 09:42:55;;;;;;;;;;;21.60;61.20;;;;;;5079260;28;19978;-57
2023/07/14 09:45:25;;;;;;;;;;;21.60;61.40;;;;;;5076729;28;19970;-58
2023/07/14 09:47:56;;;;;;;;;;;21.60;61.40;;;;;;5075918;28;19925;-56
2023/07/14 09:50:24;;;;;;;;;;;21.60;61.70;;;;;;5073564;28;20015;-56
2023/07/14 09:53:01;;;;;;;;;;;21.60;61.90;;;;;;5080034;28;19924;-57
2023/07/14 09:55:33;;;;;;;;;;;21.60;62.00;;;;;;5078012;28;19943;-57
2023/07/14 09:58:01;;;;;;;;;;;21.60;61.90;;;;;;5082017;28;19928;-57
2023/07/14 10:00:39;;;;;;;;;;;21.50;62.00;;;;;;5080578;28;19935;-57
2023/07/14 10:03:07;;;;;;;;;;;21.60;61.40;;;;;;5074273;28;20116;-54
2023/07/14 10:05:46;;;;;;;;;;;21.60;61.70;;;;;;5073522;28;19924;-54
2023/07/14 10:08:25;;;;;;;;;;;21.70;61.30;;;;;;5077423;28;19978;-59
2023/07/14 10:10:53;;;;;;;;;;;21.70;61.00;;;;;;5082308;28;19925;-59
2023/07/14 10:13:26;;;;;;;;;;;21.60;60.80;;;;;;5075978;28;19924;-59
2023/07/14 10:16:03;;;;;;;;;;;21.60;60.30;;;;;;5082435;28;19932;-59
2023/07/14 10:18:30;;;;;;;;;;;21.60;60.90;;;;;;5083160;28;19928;-58
2023/07/14 10:21:11;;;;;;;;;;;21.60;60.40;;;;;;5075008;28;20048;-59
2023/07/14 10:23:38;;;;;;;;;;;21.50;60.20;;;;;;5078348;28;20015;-59
2023/07/14 10:26:07;;;;;;;;;;;21.50;60.80;;;;;;5074300;28;19933;-59
2023/07/14 10:28:37;;;;;;;;;;;21.50;61.00;;;;;;5085147;28;20273;-59
2023/07/14 10:31:24;;;;;;;;;;;21.50;60.30;;;;;;5075446;28;19936;-59
2023/07/14 10:33:59;;;;;;;;;;;21.50;60.40;;;;;;5077645;28;19928;-58
2023/07/14 10:36:31;;;;;;;;;;;21.40;60.30;;;;;;5075042;28;20260;-59
2023/07/14 10:39:15;;;;;;;;;;;21.40;60.00;;;;;;5077541;28;19989;-58
2023/07/14 10:41:45;;;;;;;;;;;21.40;60.00;;;;;;5076850;28;19925;-59
2023/07/14 10:44:20;;;;;;;;;;;21.40;60.10;;;;;;5078381;28;20015;-58
2023/07/14 10:46:51;;;;;;;;;;;21.30;60.10;;;;;;5074353;28;19974;-59
2023/07/14 10:49:24;;;;;;;;;;;21.30;59.60;;;;;;5075895;28;20057;-59
2023/07/14 10:51:56;;;;;;;;;;;21.20;59.50;;;;;;5073400;28;19929;-59
2023/07/14 10:54:40;;;;;;;;;;;21.30;60.50;;;;;;5081662;28;19924;-59
2023/07/14 10:57:11;;;;;;;;;;;21.30;60.40;;;;;;5077541;28;19929;-59
2023/07/14 10:59:42;;;;;;;;;;;21.20;60.30;;;;;;5078261;28;19978;-61
2023/07/14 11:02:19;;;;;;;;;;;21.20;60.80;;;;;;5077111;28;19933;-59
2023/07/14 11:05:03;;;;;;;;;;;21.20;60.10;;;;;;5075636;28;19936;-58
2023/07/14 11:07:33;;;;;;;;;;;21.20;60.10;;;;;;5076067;28;19925;-59
2023/07/14 11:10:01;;;;;;;;;;;21.20;60.70;;;;;;5071220;28;19967;-58
2023/07/14 11:12:48;;;;;;;;;;;21.20;60.40;;;;;;5072505;28;20634;-58
2023/07/14 11:15:21;;;;;;;;;;;21.20;59.90;;;;;;5072266;28;19933;-57
2023/07/14 11:17:56;;;;;;;;;;;21.20;59.40;;;;;;5073531;28;20449;-59
2023/07/14 11:20:40;;;;;;;;;;;21.20;60.00;;;;;;5071288;28;20210;-57
2023/07/14 11:23:27;;;;;;;;;;;21.20;59.70;;;;;;5070660;28;19932;-58
2023/07/14 11:26:02;;;;;;;;;;;21.20;60.80;;;;;;5077619;28;19935;-56
2023/07/14 11:28:44;;;;;;;;;;;21.10;60.50;;;;;;5075921;28;19932;-59
2023/07/14 11:31:28;;;;;;;;;;;21.20;61.30;;;;;;5077964;28;19961;-59
2023/07/14 11:34:16;;;;;;;;;;;21.20;61.00;;;;;;5075406;28;19931;-57
2023/07/14 11:36:58;;;;;;;;;;;21.20;62.10;;;;;;5072487;28;20337;-58
2023/07/14 11:39:46;;;;;;;;;;;21.20;61.60;;;;;;5075513;28;19932;-58
2023/07/14 11:42:21;;;;;;;;;;;21.30;61.50;;;;;;5078185;28;20055;-60
2023/07/14 11:44:50;;;;;;;;;;;21.30;61.50;;;;;;5075216;28;19932;-59
2023/07/14 11:47:22;;;;;;;;;;;21.30;60.70;;;;;;5067904;28;19925;-51
2023/07/14 11:49:54;;;;;;;;;;;21.30;61.20;;;;;;5075844;28;20324;-54
2023/07/14 11:52:25;;;;;;;;;;;21.30;60.90;;;;;;5077149;28;19978;-56
2023/07/14 11:55:00;;;;;;;;;;;21.30;61.00;;;;;;5075272;28;19929;-54
2023/07/14 11:57:28;;;;;;;;;;;21.40;60.60;;;;;;5065419;28;19970;-59
2023/07/14 12:00:00;;;;;;;;;;;21.40;60.70;;;;;;5076548;28;19924;-59
2023/07/14 12:02:30;;;;;;;;;;;21.40;60.60;;;;;;5078041;28;19932;-59
2023/07/14 12:05:17;;;;;;;;;;;21.30;60.50;;;;;;5074323;28;20292;-57
2023/07/14 12:08:04;;;;;;;;;;;21.40;60.30;;;;;;5082330;28;19924;-54
2023/07/14 12:10:45;;;;;;;;;;;21.40;59.70;;;;;;5082623;28;20331;-57
2023/07/14 12:13:26;;;;;;;;;;;21.40;59.50;;;;;;5078838;28;19970;-58
2023/07/14 12:16:12;;;;;;;;;;;21.40;59.50;;;;;;5082657;28;19945;-57
2023/07/14 12:18:59;;;;;;;;;;;21.50;59.90;;;;;;5078004;28;20007;-56
2023/07/14 12:21:42;;;;;;;;;;;21.40;59.40;;;;;;5075345;28;19930;-56
2023/07/14 12:24:15;;;;;;;;;;;21.40;60.00;;;;;;5078236;28;19967;-57
2023/07/14 12:26:50;;;;;;;;;;;21.40;59.30;;;;;;5073690;28;19924;-55
2023/07/14 12:29:18;;;;;;;;;;;21.50;59.10;;;;;;5084829;28;19924;-57
2023/07/14 12:31:50;;;;;;;;;;;21.50;59.10;;;;;;5075126;28;19963;-56
2023/07/14 12:34:19;;;;;;;;;;;21.50;58.80;;;;;;5072481;28;20387;-58
2023/07/14 12:36:46;;;;;;;;;;;21.50;58.70;;;;;;5073078;28;19960;-56
2023/07/14 12:39:13;;;;;;;;;;;21.50;58.80;;;;;;5073392;28;20434;-57
2023/07/14 12:41:43;;;;;;;;;;;21.60;58.60;;;;;;5071788;28;20323;-56
2023/07/14 12:44:20;;;;;;;;;;;21.60;58.80;;;;;;5073295;28;19971;-55
2023/07/14 12:46:47;;;;;;;;;;;21.60;59.10;;;;;;5073078;28;20019;-56
2023/07/14 12:49:18;;;;;;;;;;;21.60;59.50;;;;;;5073286;28;19929;-55
2023/07/14 12:51:45;;;;;;;;;;;21.60;59.50;;;;;;5075498;28;19925;-55
2023/07/14 12:54:13;;;;;;;;;;;21.50;59.50;;;;;;5093463;28;19952;-52
2023/07/14 12:56:40;;;;;;;;;;;21.50;60.00;;;;;;5093693;28;19977;-56
2023/07/14 12:59:14;;;;;;;;;;;21.50;60.00;;;;;;5093040;28;19924;-52
2023/07/14 13:01:45;;;;;;;;;;;21.50;59.70;;;;;;5092100;28;19924;-51
2023/07/14 13:04:13;;;;;;;;;;;21.50;60.00;;;;;;5093340;28;19971;-49
2023/07/14 13:06:41;;;;;;;;;;;21.50;60.20;;;;;;5092501;28;20014;-48
2023/07/14 13:09:10;;;;;;;;;;;21.50;60.00;;;;;;5092297;28;20313;-50
2023/07/14 13:11:38;;;;;;;;;;;21.60;59.60;;;;;;5093285;28;20406;-54
2023/07/14 13:14:06;;;;;;;;;;;21.60;60.20;;;;;;5093341;28;19924;-49
2023/07/14 13:16:34;;;;;;;;;;;21.60;59.90;;;;;;5093126;28;19924;-55
2023/07/14 13:19:03;;;;;;;;;;;21.60;60.00;;;;;;5092095;28;19931;-56
2023/07/14 13:21:42;;;;;;;;;;;21.70;59.80;;;;;;5093419;28;20265;-53
2023/07/14 13:24:16;;;;;;;;;;;21.70;59.40;;;;;;5092322;28;20269;-52
2023/07/14 13:26:50;;;;;;;;;;;21.70;60.20;;;;;;5095149;28;19985;-53
2023/07/14 13:29:19;;;;;;;;;;;21.70;59.50;;;;;;5090760;28;19979;-52
2023/07/14 13:31:50;;;;;;;;;;;21.70;59.90;;;;;;5078104;28;20182;-54
2023/07/14 13:34:28;;;;;;;;;;;21.70;60.30;;;;;;5076335;28;19924;-51
2023/07/14 13:36:55;;;;;;;;;;;21.70;59.90;;;;;;5075984;28;20307;-53
2023/07/14 13:39:25;;;;;;;;;;;21.70;59.50;;;;;;5076286;28;19978;-56
2023/07/14 13:41:55;;;;;;;;;;;21.70;60.20;;;;;;5074701;28;20372;-53
2023/07/14 13:44:42;;;;;;;;;;;21.70;59.80;;;;;;5076395;28;19946;-52
2023/07/14 13:47:14;;;;;;;;;;;21.60;59.80;;;;;;5076114;28;20015;-53
2023/07/14 13:49:51;;;;;;;;;;;21.60;59.30;;;;;;5074532;28;19950;-57
2023/07/14 13:52:20;;;;;;;;;;;21.60;60.10;;;;;;5076224;28;19933;-54
2023/07/14 13:54:52;;;;;;;;;;;21.60;59.80;;;;;;5076630;28;19970;-53
2023/07/14 13:57:20;;;;;;;;;;;21.60;59.70;;;;;;5076379;28;20261;-53
2023/07/14 13:59:47;;;;;;;;;;;21.70;59.80;;;;;;5076065;28;20023;-56
2023/07/14 14:02:22;;;;;;;;;;;21.60;59.80;;;;;;5076087;28;20027;-52
2023/07/14 14:04:50;;;;;;;;;;;21.70;63.80;;;;;;5076138;28;19928;-50
2023/07/14 14:07:17;;;;;;;;;;;21.90;67.30;;;;;;5075943;28;20305;-53
2023/07/14 14:09:44;;;;;;;;;;;22.20;68.70;;;;;;5076139;28;19925;-55
2023/07/14 14:12:11;;;;;;;;;;;22.50;69.00;;;;;;5076340;28;19946;-53
2023/07/14 14:14:40;;;;;;;;;;;22.90;69.10;;;;;;5088139;28;19982;-53
2023/07/14 14:17:19;;;;;;;;;;;23.20;68.80;;;;;;5096040;28;19928;-54
2023/07/14 14:19:47;;;;;;;;;;;23.50;68.40;;;;;;5095656;28;19931;-54
2023/07/14 14:22:14;;;;;;;;;;;23.70;68.00;;;;;;5096212;28;19928;-55
2023/07/14 14:24:41;;;;;;;;;;;24.00;68.10;;;;;;5096301;28;19963;-54
2023/07/14 14:27:09;;;;;;;;;;;24.20;68.00;;;;;;5094404;28;20060;-53
2023/07/14 14:29:35;;;;;;;;;;;24.40;67.90;;;;;;5095487;28;20354;-55
2023/07/14 14:32:08;;;;;;;;;;;24.50;67.70;;;;;;5095727;28;19925;-55
2023/07/14 14:34:34;;;;;;;;;;;24.70;67.80;;;;;;5096115;28;20396;-54